createdAt,value
2022-08-28T00:02:25.227Z,13.31
2022-08-28T00:04:51.836Z,13.35
2022-08-28T00:07:18.556Z,13.35
2022-08-28T00:09:44.894Z,13.37
2022-08-28T00:12:12.330Z,13.30
2022-08-28T00:14:39.269Z,13.25
2022-08-28T00:17:05.670Z,13.36
2022-08-28T00:19:36.651Z,13.29
2022-08-28T00:22:05.402Z,13.26
2022-08-28T00:24:31.849Z,13.22
2022-08-28T00:27:16.905Z,13.23
2022-08-28T00:29:44.994Z,13.29
2022-08-28T00:32:11.323Z,13.31
2022-08-28T00:34:38.656Z,13.27
2022-08-28T00:37:05.173Z,13.21
2022-08-28T00:39:32.416Z,13.14
2022-08-28T00:41:59.112Z,13.12
2022-08-28T00:44:27.792Z,13.17
2022-08-28T00:46:56.795Z,13.10
2022-08-28T00:49:26.246Z,13.03
2022-08-28T00:52:08.468Z,13.06
2022-08-28T00:54:58.613Z,12.96
2022-08-28T00:57:32.105Z,12.94
2022-08-28T00:59:58.710Z,12.92
2022-08-28T01:02:26.491Z,12.88
2022-08-28T01:04:53.646Z,12.81
2022-08-28T01:07:23.092Z,12.85
2022-08-28T01:09:53.864Z,12.82
2022-08-28T01:12:28.390Z,12.87
2022-08-28T01:14:59.882Z,12.78
2022-08-28T01:17:31.152Z,12.75
2022-08-28T01:20:02.841Z,12.78
2022-08-28T01:22:37.212Z,12.80
2022-08-28T01:25:07.070Z,12.81
2022-08-28T01:27:34.075Z,12.83
2022-08-28T01:30:00.467Z,12.80
2022-08-28T01:32:31.935Z,12.72
2022-08-28T01:34:59.140Z,12.67
2022-08-28T01:37:25.644Z,12.69
2022-08-28T01:39:52.139Z,12.67
2022-08-28T01:42:18.612Z,12.69
2022-08-28T01:44:45.036Z,12.72
2022-08-28T01:47:11.443Z,12.77
2022-08-28T01:49:37.819Z,12.78
2022-08-28T01:52:04.656Z,12.88
2022-08-28T01:54:31.577Z,12.83
2022-08-28T01:56:58.414Z,12.84
2022-08-28T01:59:24.803Z,12.84
2022-08-28T02:01:51.170Z,12.87
2022-08-28T02:04:17.718Z,12.81
2022-08-28T02:06:44.139Z,12.83
2022-08-28T02:09:14.370Z,12.84
2022-08-28T02:11:43.058Z,12.75
2022-08-28T02:14:13.060Z,12.72
2022-08-28T02:16:39.448Z,12.65
2022-08-28T02:19:06.029Z,12.68
2022-08-28T02:21:32.481Z,12.57
2022-08-28T02:23:59.003Z,12.51
2022-08-28T02:26:25.939Z,12.46
2022-08-28T02:28:52.308Z,12.42
2022-08-28T02:31:18.761Z,12.50
2022-08-28T02:33:45.713Z,12.51
2022-08-28T02:36:14.484Z,12.45
2022-08-28T02:38:42.087Z,12.48
2022-08-28T02:41:09.105Z,12.53
2022-08-28T02:43:35.661Z,12.48
2022-08-28T02:46:02.853Z,12.44
2022-08-28T02:48:35.529Z,12.41
2022-08-28T02:51:09.021Z,12.42
2022-08-28T02:53:36.383Z,12.46
2022-08-28T02:56:04.708Z,12.48
2022-08-28T02:58:32.655Z,12.42
2022-08-28T03:01:07.363Z,12.45
2022-08-28T03:03:34.058Z,12.44
2022-08-28T03:06:02.908Z,12.41
2022-08-28T03:08:31.478Z,12.43
2022-08-28T03:10:58.524Z,12.43
2022-08-28T03:13:27.299Z,12.42
2022-08-28T03:15:55.863Z,12.42
2022-08-28T03:18:23.300Z,12.37
2022-08-28T03:20:49.668Z,12.42
2022-08-28T03:23:27.975Z,12.39
2022-08-28T03:26:08.883Z,12.37
2022-08-28T03:28:45.042Z,12.38
2022-08-28T03:31:14.370Z,12.33
2022-08-28T03:33:42.766Z,12.35
2022-08-28T03:36:15.578Z,12.34
2022-08-28T03:38:42.171Z,12.27
2022-08-28T03:41:14.429Z,12.26
2022-08-28T03:43:41.685Z,12.25
2022-08-28T03:46:13.622Z,12.34
2022-08-28T03:48:42.241Z,12.26
2022-08-28T03:51:15.745Z,12.26
2022-08-28T03:53:44.006Z,12.29
2022-08-28T03:56:13.596Z,12.24
2022-08-28T03:58:41.043Z,12.25
2022-08-28T04:01:08.322Z,12.25
2022-08-28T04:03:35.273Z,12.23
2022-08-28T04:06:01.846Z,12.16
2022-08-28T04:08:29.388Z,12.22
2022-08-28T04:10:56.362Z,12.16
2022-08-28T04:13:23.304Z,12.14
2022-08-28T04:16:00.964Z,12.16
2022-08-28T04:18:28.976Z,12.13
2022-08-28T04:21:05.496Z,12.14
2022-08-28T04:23:31.976Z,12.14
2022-08-28T04:25:58.345Z,12.06
2022-08-28T04:28:25.807Z,12.04
2022-08-28T04:30:54.522Z,12.01
2022-08-28T04:33:22.172Z,11.99
2022-08-28T04:35:49.125Z,11.95
2022-08-28T04:38:15.763Z,12.01
2022-08-28T04:40:43.079Z,12.02
2022-08-28T04:43:09.589Z,12.02
2022-08-28T04:45:43.653Z,12.06
2022-08-28T04:48:13.511Z,12.06
2022-08-28T04:50:45.735Z,12.05
2022-08-28T04:53:13.438Z,12.07
2022-08-28T04:55:52.316Z,12.10
2022-08-28T04:58:20.552Z,12.18
2022-08-28T05:00:51.859Z,12.30
2022-08-28T05:03:18.366Z,12.30
2022-08-28T05:05:47.760Z,12.37
2022-08-28T05:08:15.891Z,12.40
2022-08-28T05:10:43.252Z,12.42
2022-08-28T05:13:11.758Z,12.37
2022-08-28T05:15:44.456Z,12.39
2022-08-28T05:18:13.522Z,12.52
2022-08-28T05:20:42.821Z,12.54
2022-08-28T05:23:10.016Z,12.63
2022-08-28T05:25:38.261Z,12.75
2022-08-28T05:28:05.908Z,12.87
2022-08-28T05:30:35.469Z,12.98
2022-08-28T05:33:02.004Z,12.94
2022-08-28T05:35:28.345Z,13.08
2022-08-28T05:37:54.856Z,13.14
2022-08-28T05:40:22.275Z,13.20
2022-08-28T05:42:49.994Z,13.30
2022-08-28T05:45:16.905Z,13.28
2022-08-28T05:47:43.845Z,13.28
2022-08-28T05:50:13.541Z,13.40
2022-08-28T05:52:43.975Z,13.46
2022-08-28T05:55:12.733Z,13.54
2022-08-28T05:57:39.894Z,13.53
2022-08-28T06:00:07.842Z,13.67
2022-08-28T06:02:35.016Z,13.74
2022-08-28T06:05:02.505Z,13.78
2022-08-28T06:07:29.019Z,13.87
2022-08-28T06:09:55.690Z,14.00
2022-08-28T06:12:22.335Z,14.10
2022-08-28T06:14:49.190Z,14.30
2022-08-28T06:17:16.346Z,14.39
2022-08-28T06:19:49.847Z,14.47
2022-08-28T06:22:16.255Z,14.57
2022-08-28T06:24:42.756Z,14.50
2022-08-28T06:27:09.119Z,14.61
2022-08-28T06:29:35.563Z,14.48
2022-08-28T06:32:04.334Z,14.51
2022-08-28T06:34:31.349Z,14.63
2022-08-28T06:36:57.785Z,14.82
2022-08-28T06:39:24.208Z,14.91
2022-08-28T06:41:50.668Z,15.01
2022-08-28T06:44:19.827Z,14.99
2022-08-28T06:46:49.955Z,15.15
2022-08-28T06:49:16.701Z,15.07
2022-08-28T06:51:43.711Z,15.36
2022-08-28T06:54:10.565Z,15.49
2022-08-28T06:56:38.229Z,15.44
2022-08-28T06:59:05.415Z,15.54
2022-08-28T07:01:35.271Z,15.64
2022-08-28T07:04:06.686Z,15.59
2022-08-28T07:06:36.145Z,15.59
2022-08-28T07:09:05.335Z,15.76
2022-08-28T07:11:33.937Z,15.85
2022-08-28T07:14:01.101Z,15.73
2022-08-28T07:16:31.010Z,15.91
2022-08-28T07:18:58.764Z,16.12
2022-08-28T07:21:26.269Z,16.12
2022-08-28T07:23:53.376Z,16.01
2022-08-28T07:26:23.933Z,16.04
2022-08-28T07:28:51.406Z,15.92
2022-08-28T07:31:21.500Z,15.98
2022-08-28T07:33:48.722Z,16.07
2022-08-28T07:36:29.388Z,16.24
2022-08-28T07:38:58.036Z,16.24
2022-08-28T07:41:27.494Z,16.11
2022-08-28T07:44:13.159Z,16.41
2022-08-28T07:46:41.110Z,16.57
2022-08-28T07:49:08.696Z,16.60
2022-08-28T07:51:35.958Z,16.78
2022-08-28T07:54:03.855Z,16.81
2022-08-28T07:56:31.637Z,16.88
2022-08-28T07:58:59.176Z,16.79
2022-08-28T08:01:30.610Z,16.90
2022-08-28T08:04:01.514Z,16.73
2022-08-28T08:06:34.040Z,17.06
2022-08-28T08:09:01.755Z,17.14
2022-08-28T08:11:28.184Z,17.26
2022-08-28T08:14:03.740Z,17.31
2022-08-28T08:16:36.247Z,17.09
2022-08-28T08:19:03.908Z,17.09
2022-08-28T08:21:30.843Z,17.42
2022-08-28T08:23:57.730Z,17.44
2022-08-28T08:26:26.202Z,17.28
2022-08-28T08:28:52.554Z,17.33
2022-08-28T08:31:18.965Z,17.22
2022-08-28T08:33:49.605Z,17.00
2022-08-28T08:36:19.342Z,17.01
2022-08-28T08:38:46.169Z,17.17
2022-08-28T08:41:20.179Z,17.15
2022-08-28T08:43:58.452Z,17.28
2022-08-28T08:46:46.124Z,17.27
2022-08-28T08:49:20.524Z,17.45
2022-08-28T08:52:12.154Z,17.47
2022-08-28T08:54:50.971Z,17.68
2022-08-28T08:57:18.211Z,17.31
2022-08-28T08:59:44.627Z,16.99
2022-08-28T09:02:17.991Z,17.20
2022-08-28T09:04:52.467Z,17.71
2022-08-28T09:07:40.527Z,17.86
2022-08-28T09:10:12.210Z,17.92
2022-08-28T09:13:03.067Z,17.98
2022-08-28T09:15:42.637Z,18.12
2022-08-28T09:18:14.018Z,18.15
2022-08-28T09:20:41.879Z,18.31
2022-08-28T09:23:12.809Z,18.52
2022-08-28T09:25:51.553Z,18.39
2022-08-28T09:28:25.754Z,18.58
2022-08-28T09:31:00.479Z,18.41
2022-08-28T09:33:32.993Z,18.15
2022-08-28T09:36:32.929Z,18.21
2022-08-28T09:39:20.348Z,18.07
2022-08-28T09:42:41.189Z,17.72
2022-08-28T09:45:21.142Z,17.70
2022-08-28T09:47:54.587Z,17.76
2022-08-28T09:50:37.337Z,17.80
2022-08-28T09:53:09.772Z,18.09
2022-08-28T09:55:48.764Z,18.55
2022-08-28T09:58:15.733Z,18.55
2022-08-28T10:00:54.443Z,18.32
2022-08-28T10:03:33.869Z,18.27
2022-08-28T10:06:04.502Z,18.40
2022-08-28T10:08:43.071Z,18.38
2022-08-28T10:11:23.789Z,18.70
2022-08-28T10:14:05.199Z,18.85
2022-08-28T10:16:51.005Z,19.18
2022-08-28T10:19:41.745Z,19.47
2022-08-28T10:22:34.719Z,19.37
2022-08-28T10:25:20.531Z,18.97
2022-08-28T10:28:26.968Z,19.23
2022-08-28T10:31:08.989Z,19.58
2022-08-28T10:33:51.554Z,19.84
2022-08-28T10:36:33.215Z,19.72
2022-08-28T10:39:33.829Z,19.54
2022-08-28T10:42:03.097Z,19.03
2022-08-28T10:44:44.979Z,18.77
2022-08-28T10:47:13.237Z,18.76
2022-08-28T10:49:46.763Z,18.60
2022-08-28T10:52:38.913Z,18.68
2022-08-28T10:55:08.080Z,18.61
2022-08-28T10:58:03.312Z,18.94
2022-08-28T11:00:30.211Z,19.27
2022-08-28T11:03:04.734Z,19.22
2022-08-28T11:05:52.458Z,19.13
2022-08-28T11:08:40.290Z,18.85
2022-08-28T11:11:13.295Z,18.81
2022-08-28T11:13:45.889Z,18.68
2022-08-28T11:16:32.633Z,18.99
2022-08-28T11:19:17.802Z,19.08
2022-08-28T11:21:53.020Z,19.32
2022-08-28T11:24:28.541Z,19.44
2022-08-28T11:27:16.930Z,19.68
2022-08-28T11:30:11.103Z,19.49
2022-08-28T11:32:46.862Z,19.37
2022-08-28T11:35:34.816Z,19.20
2022-08-28T11:38:01.276Z,19.22
2022-08-28T11:40:30.468Z,19.10
2022-08-28T11:43:16.097Z,19.04
2022-08-28T11:45:46.890Z,18.83
2022-08-28T11:48:24.227Z,18.68
2022-08-28T11:51:07.473Z,18.90
2022-08-28T11:54:04.750Z,19.10
2022-08-28T11:57:03.886Z,19.21
2022-08-28T11:59:55.242Z,19.32
2022-08-28T12:02:39.961Z,19.08
2022-08-28T12:05:11.329Z,19.10
2022-08-28T12:07:40.325Z,19.03
2022-08-28T12:10:22.052Z,18.93
2022-08-28T12:12:49.782Z,18.89
2022-08-28T12:15:28.340Z,19.03
2022-08-28T12:17:54.697Z,19.15
2022-08-28T12:20:28.154Z,19.28
2022-08-28T12:23:01.311Z,19.58
2022-08-28T12:25:42.300Z,19.72
2022-08-28T12:28:27.630Z,19.91
2022-08-28T12:31:06.309Z,20.03
2022-08-28T12:33:42.151Z,19.64
2022-08-28T12:36:15.956Z,19.57
2022-08-28T12:38:49.492Z,19.44
2022-08-28T12:41:17.816Z,19.25
2022-08-28T12:43:48.243Z,19.16
2022-08-28T12:46:28.892Z,19.19
2022-08-28T12:49:01.217Z,19.19
2022-08-28T12:51:37.051Z,19.25
2022-08-28T12:54:08.868Z,19.39
2022-08-28T12:56:37.623Z,19.26
2022-08-28T12:59:27.253Z,19.35
2022-08-28T13:01:54.721Z,19.40
2022-08-28T13:04:31.549Z,19.35
2022-08-28T13:07:10.677Z,19.67
2022-08-28T13:09:37.861Z,19.69
2022-08-28T13:12:07.228Z,19.64
2022-08-28T13:14:44.097Z,19.54
2022-08-28T13:17:14.290Z,19.52
2022-08-28T13:19:41.580Z,19.26
2022-08-28T13:22:29.555Z,19.35
2022-08-28T13:25:01.656Z,19.33
2022-08-28T13:27:28.605Z,19.41
2022-08-28T13:30:04.728Z,19.49
2022-08-28T13:32:33.942Z,19.32
2022-08-28T13:35:13.487Z,19.33
2022-08-28T13:37:45.806Z,19.61
2022-08-28T13:40:38.197Z,19.57
2022-08-28T13:43:06.936Z,19.56
2022-08-28T13:45:42.646Z,19.32
2022-08-28T13:48:11.910Z,19.25
2022-08-28T13:50:41.606Z,19.46
2022-08-28T13:53:08.067Z,19.41
2022-08-28T13:55:34.557Z,19.33
2022-08-28T13:58:00.924Z,19.22
2022-08-28T14:00:30.003Z,19.18
2022-08-28T14:03:16.417Z,19.27
2022-08-28T14:05:46.979Z,19.08
2022-08-28T14:08:13.487Z,19.02
2022-08-28T14:10:40.338Z,19.07
2022-08-28T14:13:07.005Z,18.96
2022-08-28T14:15:33.499Z,19.04
2022-08-28T14:17:59.904Z,19.05
2022-08-28T14:20:26.509Z,19.15
2022-08-28T14:22:52.887Z,19.22
2022-08-28T14:25:19.288Z,19.33
2022-08-28T14:27:46.232Z,19.32
2022-08-28T14:30:13.008Z,19.32
2022-08-28T14:32:39.367Z,19.42
2022-08-28T14:35:06.577Z,19.19
2022-08-28T14:37:33.233Z,19.18
2022-08-28T14:39:59.903Z,19.34
2022-08-28T14:42:26.844Z,19.32
2022-08-28T14:44:53.807Z,19.25
2022-08-28T14:47:20.391Z,19.24
2022-08-28T14:49:46.855Z,19.26
2022-08-28T14:52:13.420Z,19.24
2022-08-28T14:54:40.448Z,19.09
2022-08-28T14:57:06.844Z,19.06
2022-08-28T14:59:33.892Z,19.10
2022-08-28T15:02:01.683Z,19.11
2022-08-28T15:04:34.476Z,19.10
2022-08-28T15:07:05.344Z,19.05
2022-08-28T15:09:35.522Z,19.16
2022-08-28T15:12:02.084Z,19.03
2022-08-28T15:14:28.515Z,19.07
2022-08-28T15:16:54.925Z,18.92
2022-08-28T15:19:23.223Z,18.84
2022-08-28T15:21:52.944Z,19.00
2022-08-28T15:24:23.102Z,19.19
2022-08-28T15:26:50.443Z,18.95
2022-08-28T15:29:17.257Z,18.93
2022-08-28T15:31:47.432Z,18.83
2022-08-28T15:34:17.812Z,18.82
2022-08-28T15:36:45.341Z,18.89
2022-08-28T15:39:40.946Z,19.03
2022-08-28T15:42:08.051Z,19.01
2022-08-28T15:44:34.534Z,19.00
2022-08-28T15:47:02.910Z,18.98
2022-08-28T15:49:32.198Z,18.74
2022-08-28T15:52:03.008Z,18.59
2022-08-28T15:54:31.928Z,18.56
2022-08-28T15:56:58.484Z,18.52
2022-08-28T15:59:24.888Z,18.38
2022-08-28T16:02:12.190Z,18.27
2022-08-28T16:04:38.756Z,18.36
2022-08-28T16:07:05.228Z,18.44
2022-08-28T16:09:31.672Z,18.52
2022-08-28T16:11:58.246Z,18.57
2022-08-28T16:14:24.634Z,18.50
2022-08-28T16:16:51.087Z,18.47
2022-08-28T16:19:17.738Z,18.44
2022-08-28T16:21:44.155Z,18.45
2022-08-28T16:24:10.536Z,18.42
2022-08-28T16:26:36.896Z,18.41
2022-08-28T16:29:03.557Z,18.37
2022-08-28T16:31:33.786Z,18.45
2022-08-28T16:34:01.610Z,18.36
2022-08-28T16:36:28.679Z,18.26
2022-08-28T16:39:00.293Z,18.28
2022-08-28T16:41:31.931Z,18.32
2022-08-28T16:43:58.828Z,18.22
2022-08-28T16:46:26.446Z,18.22
2022-08-28T16:48:53.810Z,18.12
2022-08-28T16:51:20.803Z,18.06
2022-08-28T16:53:47.678Z,17.98
2022-08-28T16:56:17.260Z,17.85
2022-08-28T16:58:44.798Z,17.88
2022-08-28T17:01:13.805Z,17.81
2022-08-28T17:03:41.600Z,17.79
2022-08-28T17:06:15.707Z,17.84
2022-08-28T17:08:42.639Z,17.85
2022-08-28T17:11:09.010Z,17.76
2022-08-28T17:13:36.199Z,17.69
2022-08-28T17:16:03.309Z,17.74
2022-08-28T17:18:29.954Z,17.66
2022-08-28T17:21:15.232Z,17.69
2022-08-28T17:23:41.723Z,17.77
2022-08-28T17:26:08.514Z,17.81
2022-08-28T17:28:35.060Z,17.73
2022-08-28T17:31:01.787Z,17.55
2022-08-28T17:33:28.384Z,17.49
2022-08-28T17:35:55.602Z,17.44
2022-08-28T17:38:22.149Z,17.44
2022-08-28T17:40:48.539Z,17.47
2022-08-28T17:43:14.940Z,17.47
2022-08-28T17:45:41.336Z,17.43
2022-08-28T17:48:07.779Z,17.53
2022-08-28T17:50:34.367Z,17.41
2022-08-28T17:53:00.791Z,17.34
2022-08-28T17:55:29.273Z,17.41
2022-08-28T17:57:55.636Z,17.45
2022-08-28T18:00:22.228Z,17.52
2022-08-28T18:02:51.266Z,17.52
2022-08-28T18:05:18.000Z,17.42
2022-08-28T18:07:44.376Z,17.30
2022-08-28T18:10:11.869Z,17.25
2022-08-28T18:12:39.822Z,17.21
2022-08-28T18:15:09.005Z,17.22
2022-08-28T18:17:36.912Z,17.29
2022-08-28T18:20:06.214Z,17.26
2022-08-28T18:22:32.621Z,17.24
2022-08-28T18:24:59.048Z,17.24
2022-08-28T18:27:27.740Z,17.25
2022-08-28T18:29:54.340Z,17.11
2022-08-28T18:32:20.734Z,17.12
2022-08-28T18:34:47.162Z,17.13
2022-08-28T18:37:13.665Z,17.04
2022-08-28T18:39:40.144Z,16.99
2022-08-28T18:42:09.327Z,17.02
2022-08-28T18:44:35.696Z,16.99
2022-08-28T18:47:02.132Z,17.05
2022-08-28T18:49:28.755Z,16.90
2022-08-28T18:51:55.337Z,16.87
2022-08-28T18:54:22.396Z,16.88
2022-08-28T18:56:50.467Z,16.80
2022-08-28T18:59:17.382Z,16.87
2022-08-28T19:01:44.354Z,16.93
2022-08-28T19:04:10.866Z,16.83
2022-08-28T19:06:37.336Z,16.89
2022-08-28T19:09:05.511Z,16.82
2022-08-28T19:11:32.072Z,16.73
2022-08-28T19:13:59.408Z,16.76
2022-08-28T19:16:31.593Z,16.69
2022-08-28T19:18:58.019Z,16.67
2022-08-28T19:21:24.725Z,16.62
2022-08-28T19:23:56.167Z,16.52
2022-08-28T19:26:24.450Z,16.46
2022-08-28T19:28:51.435Z,16.43
2022-08-28T19:31:18.203Z,16.45
2022-08-28T19:33:46.271Z,16.39
2022-08-28T19:36:13.639Z,16.35
2022-08-28T19:38:40.680Z,16.41
2022-08-28T19:41:08.891Z,16.44
2022-08-28T19:43:44.221Z,16.36
2022-08-28T19:46:18.253Z,16.33
2022-08-28T19:48:47.637Z,16.33
2022-08-28T19:51:22.320Z,16.32
2022-08-28T19:53:56.158Z,16.28
2022-08-28T19:56:26.662Z,16.29
2022-08-28T19:58:54.739Z,16.16
2022-08-28T20:01:21.289Z,16.15
2022-08-28T20:03:47.930Z,16.08
2022-08-28T20:06:14.327Z,16.00
2022-08-28T20:08:40.698Z,15.98
2022-08-28T20:11:07.280Z,15.95
2022-08-28T20:13:33.718Z,15.91
2022-08-28T20:16:04.372Z,15.95
2022-08-28T20:18:30.810Z,15.95
2022-08-28T20:20:57.200Z,15.94
2022-08-28T20:23:23.780Z,15.94
2022-08-28T20:25:51.101Z,16.02
2022-08-28T20:28:18.537Z,16.09
2022-08-28T20:30:46.651Z,16.09
2022-08-28T20:33:13.224Z,16.07
2022-08-28T20:35:40.048Z,16.02
2022-08-28T20:38:06.440Z,16.02
2022-08-28T20:40:32.976Z,16.09
2022-08-28T20:43:00.428Z,16.13
2022-08-28T20:45:27.179Z,16.15
2022-08-28T20:47:53.821Z,16.19
2022-08-28T20:50:20.450Z,16.17
2022-08-28T20:52:46.843Z,16.23
2022-08-28T20:55:14.040Z,16.22
2022-08-28T20:57:40.954Z,16.26
2022-08-28T21:00:09.587Z,16.31
2022-08-28T21:02:37.077Z,16.29
2022-08-28T21:05:04.178Z,16.21
2022-08-28T21:07:31.038Z,16.18
2022-08-28T21:10:05.204Z,16.16
2022-08-28T21:12:34.748Z,16.12
2022-08-28T21:15:01.309Z,16.18
2022-08-28T21:17:29.796Z,16.27
2022-08-28T21:20:10.265Z,16.23
2022-08-28T21:22:37.007Z,16.21
2022-08-28T21:25:05.549Z,16.22
2022-08-28T21:27:31.942Z,16.15
2022-08-28T21:30:00.269Z,16.13
2022-08-28T21:32:28.594Z,16.10
2022-08-28T21:34:55.074Z,16.05
2022-08-28T21:37:21.555Z,16.09
2022-08-28T21:39:47.978Z,15.99
2022-08-28T21:42:14.428Z,15.94
2022-08-28T21:44:40.894Z,15.97
2022-08-28T21:47:14.851Z,16.02
2022-08-28T21:49:41.483Z,16.10
2022-08-28T21:52:07.909Z,16.10
2022-08-28T21:54:34.496Z,16.06
2022-08-28T21:57:00.848Z,16.10
2022-08-28T21:59:35.958Z,16.14
2022-08-28T22:02:04.457Z,16.10
2022-08-28T22:04:31.046Z,16.11
2022-08-28T22:06:57.535Z,16.10
2022-08-28T22:09:23.986Z,16.15
2022-08-28T22:11:50.390Z,16.23
2022-08-28T22:14:16.730Z,16.21
2022-08-28T22:16:44.639Z,16.20
2022-08-28T22:19:11.028Z,16.21
2022-08-28T22:21:56.761Z,16.10
2022-08-28T22:24:23.557Z,16.15
2022-08-28T22:26:50.174Z,16.12
2022-08-28T22:29:23.724Z,16.13
2022-08-28T22:31:50.297Z,16.14
2022-08-28T22:34:16.721Z,16.22
2022-08-28T22:36:43.074Z,16.29
2022-08-28T22:39:09.508Z,16.23
2022-08-28T22:41:37.270Z,16.13
2022-08-28T22:44:03.846Z,16.15
2022-08-28T22:46:30.199Z,16.10
2022-08-28T22:48:56.673Z,16.17
2022-08-28T22:51:23.083Z,16.21
2022-08-28T22:53:49.485Z,16.13
2022-08-28T22:56:16.851Z,16.17
2022-08-28T22:58:43.838Z,16.24
2022-08-28T23:01:18.040Z,16.24
2022-08-28T23:03:45.315Z,16.27
2022-08-28T23:06:11.917Z,16.31
2022-08-28T23:08:38.407Z,16.35
2022-08-28T23:11:05.030Z,16.33
2022-08-28T23:13:32.911Z,16.35
2022-08-28T23:16:00.373Z,16.34
2022-08-28T23:18:27.705Z,16.41
2022-08-28T23:20:54.263Z,16.36
2022-08-28T23:23:20.880Z,16.40
2022-08-28T23:25:47.275Z,16.45
2022-08-28T23:28:13.669Z,16.49
2022-08-28T23:30:41.270Z,16.42
2022-08-28T23:33:23.064Z,16.39
2022-08-28T23:35:51.262Z,16.40
2022-08-28T23:38:17.754Z,16.46
2022-08-28T23:40:44.369Z,16.42
2022-08-28T23:43:11.095Z,16.46
2022-08-28T23:45:40.205Z,16.47
2022-08-28T23:48:07.432Z,16.50
2022-08-28T23:50:34.157Z,16.53
2022-08-28T23:53:01.208Z,16.38
2022-08-28T23:55:27.865Z,16.38
2022-08-28T23:57:54.313Z,16.44
